This is the latest recevied weather packets stored in our database for station/object HP1CDW-13. If no packets are shown the sender has not sent any weather packets the latest 10 day(s).
| Time | Temp. | Humidity | Pressure | Rain* | Wind** | Luminosity | Snow |
|---|---|---|---|---|---|---|---|
| 1777658690 | 32.22° C | 72% | 1011.6 hPa | 0 mm | - | - | - |
| 1777658090 | 32.78° C | 71% | 1011.6 hPa | 0 mm | - | - | - |
| 1777657490 | 32.78° C | 69% | 1011.8 hPa | 0 mm | - | - | - |
| 1777656890 | 32.78° C | 70% | 1011.8 hPa | 0 mm | - | - | - |
| 1777656290 | 32.78° C | 70% | 1012 hPa | 0 mm | - | - | - |
| 1777655690 | 32.78° C | 71% | 1012.3 hPa | 0 mm | - | - | - |
| 1777655090 | 32.22° C | 73% | 1012.6 hPa | 0 mm | - | - | - |
| 1777654490 | 32.78° C | 71% | 1012.5 hPa | 0 mm | - | - | - |
| 1777653890 | 32.78° C | 70% | 1012.6 hPa | 0 mm | - | - | - |
| 1777653290 | 32.22° C | 73% | 1012.8 hPa | 0 mm | - | - | - |
| 1777652690 | 32.78° C | 73% | 1012.6 hPa | 0 mm | - | - | - |
| 1777652090 | 32.22° C | 72% | 1012.7 hPa | 0 mm | - | - | - |
| 1777651490 | 32.22° C | 72% | 1012.9 hPa | 0 mm | - | - | - |
| 1777650890 | 31.67° C | 73% | 1012.9 hPa | 0 mm | - | - | - |
| 1777650290 | 31.11° C | 76% | 1012.7 hPa | 0 mm | - | - | - |
| 1777649690 | 31.11° C | 76% | 1012.9 hPa | 0 mm | - | - | - |
| 1777649090 | 31.11° C | 75% | 1013.3 hPa | 0 mm | - | - | - |
| 1777648490 | 32.22° C | 74% | 1013.2 hPa | 0 mm | - | - | - |
| 1777647890 | 31.67° C | 73% | 1012.6 hPa | 0 mm | - | - | - |
| 1777647290 | 31.11° C | 75% | 1013.2 hPa | 0 mm | - | - | - |
| 1777646690 | 31.67° C | 75% | 1013.1 hPa | 0 mm | - | - | - |
| 1777646090 | 31.11° C | 76% | 1013.2 hPa | 0 mm | - | - | - |
| 1777645490 | 30.56° C | 78% | 1013.1 hPa | 0 mm | - | - | - |
| 1777644890 | 30° C | 79% | 1013.2 hPa | 0 mm | - | - | - |
| 1777644290 | 29.44° C | 82% | 1013.3 hPa | 0 mm | - | - | - |
* Rain latest hour (hover to see other rain measurements)
** Current wind speed in m/s (hover to see current wind gust speed)